Icano, Argentina
Current Conditions -  °F | °C
As of 8:00 PM on Thursday 20 Nov 2014 (Local Time) from SANT Reporting Station
Haze Haze  
Wind Chill: 68°   Ceiling: 2700
Heat Index: 68°   Visibility: 2.5mi
Dew Point: 66°   Wind: 5mph
Humidity: 94%   Direction: 50°NE
Pressure: 29.85"   Gusts: NA
Location:  28.68°S, 62.9°W
Report Text: SANT 202300Z 05004KT 4000 BR SCT006 BKN02720/19 Q1011
Loading
Personal Weather Stations






























Interactive Weather Map New forecast layout! Learn more

10-Day Weather Forecast

Advertisements
Track Severe Weather on mobile